Time;durP1;ratioP1;P1;durP2;ratioP2;P2;SDS_P1;SDS_P2;PMS_P1;PMS_P2;Temp;Humidity;BMP_temperature;BMP_pressure;BME280_temperature;BME280_humidity;BME280_pressure;Samples;Min_cycle;Max_cycle;Signal;HPM_P1;HPM_P2
2021/09/26 00:00:55;;;;;;;13.60;8.50;;;14.40;97.30;;;;;;5002306;28;20471;-78
2021/09/26 00:03:20;;;;;;;16.60;8.70;;;14.30;97.30;;;;;;5008041;28;20718;-79
2021/09/26 00:05:46;;;;;;;15.93;9.60;;;14.40;97.30;;;;;;5010113;28;20180;-78
2021/09/26 00:08:12;;;;;;;15.63;8.93;;;14.30;97.30;;;;;;4998455;28;20209;-81
2021/09/26 00:10:37;;;;;;;14.73;8.60;;;14.30;97.30;;;;;;5009977;28;20177;-82
2021/09/26 00:13:04;;;;;;;20.87;9.47;;;14.30;97.30;;;;;;5013146;28;20221;-82
2021/09/26 00:15:30;;;;;;;14.80;9.57;;;14.30;97.30;;;;;;5007410;28;20178;-81
2021/09/26 00:17:55;;;;;;;18.17;11.80;;;14.30;97.30;;;;;;5012082;28;20424;-79
2021/09/26 00:20:21;;;;;;;15.23;9.40;;;14.40;97.30;;;;;;5012422;28;20431;-80
2021/09/26 00:22:47;;;;;;;15.83;10.33;;;14.40;97.30;;;;;;5015973;28;20201;-80
2021/09/26 00:25:16;;;;;;;15.37;9.40;;;14.40;97.30;;;;;;5017163;28;20458;-80
2021/09/26 00:27:42;;;;;;;17.83;10.93;;;14.40;97.30;;;;;;5018618;28;20185;-80
2021/09/26 00:30:09;;;;;;;13.80;8.73;;;14.40;97.30;;;;;;5017298;28;20475;-81
2021/09/26 00:32:35;;;;;;;17.00;10.77;;;14.40;97.30;;;;;;5014135;28;20475;-81
2021/09/26 00:35:03;;;;;;;19.47;10.40;;;14.30;97.30;;;;;;5002505;28;20421;-80
2021/09/26 00:37:28;;;;;;;15.73;10.17;;;14.30;97.30;;;;;;5007703;28;20432;-81
2021/09/26 00:39:54;;;;;;;18.10;9.97;;;14.30;97.30;;;;;;5016994;28;20424;-80
2021/09/26 00:42:19;;;;;;;18.00;11.10;;;14.30;97.30;;;;;;5017512;28;20184;-81
2021/09/26 00:44:45;;;;;;;15.70;11.00;;;14.30;97.30;;;;;;5000259;28;20201;-80
2021/09/26 00:47:11;;;;;;;17.60;10.13;;;14.30;97.30;;;;;;5004726;28;20185;-80
2021/09/26 00:49:36;;;;;;;17.40;10.30;;;14.30;97.30;;;;;;5033192;28;20230;-81
2021/09/26 00:52:02;;;;;;;18.60;10.10;;;14.20;97.30;;;;;;5017304;28;20268;-80
2021/09/26 00:54:28;;;;;;;20.10;12.23;;;14.20;97.30;;;;;;5015897;28;20217;-80
2021/09/26 00:56:55;;;;;;;20.83;11.13;;;14.20;97.30;;;;;;5017133;28;20431;-80
2021/09/26 00:59:21;;;;;;;16.37;9.73;;;14.10;97.30;;;;;;5015949;28;21004;-81
2021/09/26 01:01:48;;;;;;;20.23;10.43;;;14.10;97.30;;;;;;5015158;28;20499;-80
2021/09/26 01:04:16;;;;;;;17.77;10.40;;;14.10;97.30;;;;;;5015694;28;20220;-80
2021/09/26 01:06:54;;;;;;;19.80;10.20;;;14.10;97.30;;;;;;5015991;28;20436;-80
2021/09/26 01:09:40;;;;;;;16.10;9.67;;;14.10;97.30;;;;;;5016103;28;22310;-80
2021/09/26 01:12:24;;;;;;;20.33;11.60;;;14.00;97.30;;;;;;5016963;28;20431;-80
2021/09/26 01:15:11;;;;;;;20.70;11.10;;;14.00;97.30;;;;;;5014722;28;20486;-80
2021/09/26 01:17:45;;;;;;;20.97;11.37;;;14.00;97.30;;;;;;5017342;28;20447;-81
2021/09/26 01:20:41;;;;;;;20.00;10.40;;;14.00;97.30;;;;;;5009242;28;20478;-81
2021/09/26 01:23:38;;;;;;;19.77;10.87;;;13.90;97.30;;;;;;5016754;28;20455;-81
2021/09/26 01:26:33;;;;;;;17.87;11.10;;;13.90;97.30;;;;;;5016894;28;20412;-81
2021/09/26 01:29:28;;;;;;;21.00;10.80;;;13.80;97.30;;;;;;5013464;28;20428;-81
2021/09/26 01:32:00;;;;;;;19.47;11.50;;;13.80;97.30;;;;;;5016219;28;20443;-81
2021/09/26 01:34:46;;;;;;;18.33;11.10;;;13.80;97.30;;;;;;5013199;28;20468;-78
2021/09/26 01:37:20;;;;;;;24.30;11.23;;;13.70;97.30;;;;;;5013431;28;20438;-81
2021/09/26 01:39:58;;;;;;;16.77;10.37;;;13.70;97.30;;;;;;5015463;28;20397;-79
2021/09/26 01:42:33;;;;;;;20.57;10.67;;;13.70;97.30;;;;;;5014498;28;20447;-77
2021/09/26 01:45:15;;;;;;;18.10;11.17;;;13.70;97.30;;;;;;5030111;28;20507;-78
2021/09/26 01:48:11;;;;;;;22.17;10.53;;;13.60;97.30;;;;;;5013689;28;20479;-79
2021/09/26 01:50:38;;;;;;;18.07;11.20;;;13.60;97.30;;;;;;5012813;28;20447;-78
2021/09/26 01:53:05;;;;;;;15.47;10.53;;;13.60;97.30;;;;;;5030245;28;20464;-79
2021/09/26 01:55:32;;;;;;;19.43;10.83;;;13.50;97.30;;;;;;5013626;28;20470;-79
2021/09/26 01:57:59;;;;;;;15.60;10.10;;;13.50;97.30;;;;;;5013477;28;20435;-79
2021/09/26 02:00:25;;;;;;;20.53;11.20;;;13.50;97.30;;;;;;5014181;28;20475;-79
2021/09/26 02:02:52;;;;;;;16.03;10.70;;;13.50;97.30;;;;;;5013678;28;20448;-79
2021/09/26 02:05:18;;;;;;;17.60;10.60;;;13.50;97.30;;;;;;5013202;28;20420;-79
2021/09/26 02:07:46;;;;;;;17.83;10.50;;;13.50;97.30;;;;;;5015046;28;20984;-79
2021/09/26 02:10:14;;;;;;;19.37;11.20;;;13.50;97.30;;;;;;5012906;28;20436;-78
2021/09/26 02:12:40;;;;;;;16.30;10.70;;;13.40;97.30;;;;;;5012839;28;20474;-79
2021/09/26 02:15:09;;;;;;;19.57;10.53;;;13.40;97.30;;;;;;5013405;28;20765;-80
2021/09/26 02:17:37;;;;;;;16.00;9.97;;;13.40;97.30;;;;;;5012773;28;20455;-79
2021/09/26 02:20:04;;;;;;;15.53;10.40;;;13.40;97.30;;;;;;5013972;28;20463;-79
2021/09/26 02:22:32;;;;;;;17.20;10.40;;;13.40;97.30;;;;;;5013231;28;20416;-79
2021/09/26 02:25:03;;;;;;;19.90;10.30;;;13.40;97.30;;;;;;5014339;28;20949;-80
2021/09/26 02:27:30;;;;;;;17.57;10.10;;;13.40;97.30;;;;;;5013329;28;20972;-79
2021/09/26 02:29:56;;;;;;;16.80;9.30;;;13.40;97.30;;;;;;5013177;28;20432;-80
2021/09/26 02:32:21;;;;;;;23.10;11.47;;;13.30;97.30;;;;;;5012802;28;20431;-82
2021/09/26 02:34:47;;;;;;;16.50;10.23;;;13.30;97.30;;;;;;5016188;28;20658;-82
2021/09/26 02:37:13;;;;;;;19.80;12.07;;;13.20;97.30;;;;;;5015861;28;20601;-81
2021/09/26 02:39:39;;;;;;;18.03;10.73;;;13.20;97.30;;;;;;5014859;28;20186;-82
2021/09/26 02:42:21;;;;;;;17.73;10.20;;;13.20;97.30;;;;;;5015938;28;20176;-81
2021/09/26 02:45:08;;;;;;;19.13;11.60;;;13.10;97.30;;;;;;5017145;28;20443;-81
2021/09/26 02:47:47;;;;;;;16.70;9.90;;;13.10;97.30;;;;;;5014735;28;20420;-81
2021/09/26 02:50:12;;;;;;;19.57;10.70;;;13.10;97.30;;;;;;5016041;28;20453;-81
2021/09/26 02:52:38;;;;;;;26.40;11.77;;;13.10;97.30;;;;;;5014979;28;20905;-81
2021/09/26 02:55:05;;;;;;;23.30;10.20;;;13.10;97.30;;;;;;5014474;28;20179;-81
2021/09/26 02:57:31;;;;;;;19.83;12.10;;;13.10;97.30;;;;;;5014433;28;20699;-81
2021/09/26 02:59:57;;;;;;;20.83;10.93;;;13.20;97.30;;;;;;5016302;28;20822;-80
2021/09/26 03:02:30;;;;;;;18.93;11.40;;;13.20;97.30;;;;;;5015266;28;20166;-80
2021/09/26 03:04:55;;;;;;;17.93;11.00;;;13.30;97.30;;;;;;5012873;28;20423;-81
2021/09/26 03:07:21;;;;;;;17.00;10.50;;;13.30;97.30;;;;;;5011635;28;20428;-80
2021/09/26 03:09:46;;;;;;;17.30;10.57;;;13.30;97.30;;;;;;5011629;28;20209;-80
2021/09/26 03:12:17;;;;;;;17.57;11.00;;;13.30;97.30;;;;;;5012011;28;20173;-80
2021/09/26 03:14:43;;;;;;;19.40;11.10;;;13.30;97.30;;;;;;5011470;28;20207;-80
2021/09/26 03:17:09;;;;;;;18.90;11.17;;;13.40;97.30;;;;;;5014239;28;20644;-81
2021/09/26 03:19:35;;;;;;;19.37;11.30;;;13.40;97.30;;;;;;5012845;28;20435;-81
2021/09/26 03:22:01;;;;;;;17.10;11.10;;;13.40;97.30;;;;;;5013585;28;20231;-81
2021/09/26 03:24:27;;;;;;;23.73;11.20;;;13.40;97.30;;;;;;5011551;28;20204;-80
2021/09/26 03:26:57;;;;;;;20.70;12.67;;;13.40;97.30;;;;;;5011232;28;20499;-79
2021/09/26 03:29:23;;;;;;;19.03;11.77;;;13.40;97.30;;;;;;5010196;28;20463;-79
2021/09/26 03:31:48;;;;;;;17.50;11.50;;;13.40;97.30;;;;;;5011123;28;20463;-80
2021/09/26 03:34:14;;;;;;;25.13;11.90;;;13.40;97.30;;;;;;5012431;28;20245;-80
2021/09/26 03:36:40;;;;;;;19.77;11.67;;;13.40;97.30;;;;;;5013015;28;20231;-81
2021/09/26 03:39:06;;;;;;;23.00;12.60;;;13.40;97.30;;;;;;5014193;28;20187;-82
2021/09/26 03:41:31;;;;;;;20.80;11.67;;;13.40;97.30;;;;;;5013116;28;20463;-81
2021/09/26 03:43:57;;;;;;;19.60;12.37;;;13.40;97.30;;;;;;5012856;28;20197;-81
2021/09/26 03:46:22;;;;;;;20.50;11.00;;;13.50;97.30;;;;;;5014476;28;20204;-81
2021/09/26 03:48:48;;;;;;;22.67;12.93;;;13.50;97.30;;;;;;5013779;28;20181;-80
2021/09/26 03:51:14;;;;;;;18.10;11.60;;;13.50;97.30;;;;;;5029467;28;20178;-82
2021/09/26 03:53:40;;;;;;;23.90;12.87;;;13.50;97.30;;;;;;5013986;28;20655;-81
2021/09/26 03:56:06;;;;;;;18.37;11.97;;;13.50;97.30;;;;;;5013869;28;20188;-81
2021/09/26 03:58:32;;;;;;;24.63;12.47;;;13.50;97.30;;;;;;5013481;28;20431;-80
2021/09/26 04:00:57;;;;;;;19.87;11.20;;;13.50;97.30;;;;;;5011675;28;20514;-80
2021/09/26 04:03:23;;;;;;;20.70;11.83;;;13.50;97.30;;;;;;5014180;28;20452;-81
2021/09/26 04:05:48;;;;;;;19.23;11.93;;;13.50;97.30;;;;;;5013273;28;20600;-81
2021/09/26 04:08:15;;;;;;;18.63;11.63;;;13.50;97.30;;;;;;5013284;28;20181;-81
2021/09/26 04:10:40;;;;;;;22.60;11.93;;;13.40;97.30;;;;;;5013113;28;20209;-81
2021/09/26 04:13:06;;;;;;;21.40;11.33;;;13.40;97.30;;;;;;5013550;28;20503;-81
2021/09/26 04:15:32;;;;;;;21.67;11.70;;;13.40;97.30;;;;;;5013937;28;20173;-80
2021/09/26 04:17:57;;;;;;;19.97;11.13;;;13.40;97.30;;;;;;5012978;28;20709;-80
2021/09/26 04:20:23;;;;;;;18.50;11.60;;;13.40;97.30;;;;;;5010363;28;20456;-81
2021/09/26 04:22:49;;;;;;;20.83;11.70;;;13.40;97.30;;;;;;5012813;28;20567;-80
2021/09/26 04:25:14;;;;;;;20.37;11.70;;;13.40;97.30;;;;;;5012802;28;20185;-80
2021/09/26 04:27:40;;;;;;;23.70;12.30;;;13.40;97.30;;;;;;5012701;28;20640;-80
2021/09/26 04:30:07;;;;;;;20.37;11.80;;;13.40;97.30;;;;;;5013103;28;20181;-81
2021/09/26 04:32:33;;;;;;;17.00;10.93;;;13.40;97.30;;;;;;5012740;28;20208;-80
2021/09/26 04:34:59;;;;;;;19.03;11.40;;;13.40;97.30;;;;;;5012835;28;20840;-81
2021/09/26 04:37:25;;;;;;;25.73;11.77;;;13.40;97.30;;;;;;5013065;28;20420;-81
2021/09/26 04:39:50;;;;;;;21.73;12.03;;;13.40;97.30;;;;;;5012934;28;20185;-81
2021/09/26 04:42:16;;;;;;;20.03;12.07;;;13.40;97.30;;;;;;5012000;28;20766;-80
2021/09/26 04:44:42;;;;;;;18.70;11.67;;;13.40;97.30;;;;;;5013047;28;20197;-80
2021/09/26 04:47:07;;;;;;;21.10;11.57;;;13.40;97.30;;;;;;5012247;28;20192;-81
2021/09/26 04:49:33;;;;;;;17.87;10.97;;;13.40;97.30;;;;;;5012837;28;20276;-80
2021/09/26 04:52:00;;;;;;;16.93;10.93;;;13.40;97.30;;;;;;5012304;28;20604;-81
2021/09/26 04:54:26;;;;;;;15.50;10.30;;;13.40;97.30;;;;;;5012417;28;20213;-82
2021/09/26 04:56:52;;;;;;;19.93;10.63;;;13.40;97.30;;;;;;5012178;28;20440;-81
2021/09/26 04:59:18;;;;;;;16.20;10.93;;;13.40;97.30;;;;;;5012617;28;20436;-81
2021/09/26 05:01:44;;;;;;;18.90;11.50;;;13.40;97.30;;;;;;5011792;28;20498;-80
2021/09/26 05:04:10;;;;;;;19.23;11.17;;;13.50;97.30;;;;;;5013482;28;20436;-81
2021/09/26 05:06:36;;;;;;;20.53;11.03;;;13.50;97.30;;;;;;5013134;28;20470;-81
2021/09/26 05:09:02;;;;;;;17.40;10.70;;;13.50;97.30;;;;;;5012254;28;20259;-81
2021/09/26 05:11:27;;;;;;;19.90;12.20;;;13.50;97.30;;;;;;5013791;28;20215;-80
2021/09/26 05:13:53;;;;;;;20.80;11.30;;;13.60;97.30;;;;;;5016023;28;20471;-80
2021/09/26 05:16:19;;;;;;;19.60;10.60;;;13.60;97.30;;;;;;5016325;28;20181;-81
2021/09/26 05:18:44;;;;;;;19.10;10.73;;;13.60;97.30;;;;;;5015742;28;20177;-80
2021/09/26 05:21:10;;;;;;;22.83;10.90;;;13.60;97.30;;;;;;5017055;28;20549;-81
2021/09/26 05:23:36;;;;;;;19.17;11.13;;;13.60;97.30;;;;;;5014822;28;20234;-80
2021/09/26 05:26:05;;;;;;;20.03;10.87;;;13.60;97.30;;;;;;5015831;28;20395;-80
2021/09/26 05:28:31;;;;;;;18.00;11.17;;;13.60;97.30;;;;;;5014157;28;20205;-80
2021/09/26 05:30:56;;;;;;;23.23;11.67;;;13.60;97.30;;;;;;5017206;28;20427;-80
2021/09/26 05:33:23;;;;;;;17.57;10.03;;;13.60;97.30;;;;;;5017797;28;20209;-80
2021/09/26 05:35:49;;;;;;;17.73;10.67;;;13.60;97.30;;;;;;5018560;28;20239;-81
2021/09/26 05:38:14;;;;;;;14.73;10.10;;;13.60;97.30;;;;;;5019361;28;20420;-80
2021/09/26 05:40:40;;;;;;;17.13;9.83;;;13.60;97.30;;;;;;5020815;28;20177;-80
2021/09/26 05:43:05;;;;;;;19.57;10.50;;;13.60;97.30;;;;;;5019598;28;20283;-80
2021/09/26 05:45:31;;;;;;;18.00;10.83;;;13.60;97.30;;;;;;5017905;28;20676;-80
2021/09/26 05:47:57;;;;;;;17.67;10.60;;;13.60;97.30;;;;;;5018068;28;20181;-81
2021/09/26 05:50:22;;;;;;;17.60;9.97;;;13.70;97.30;;;;;;5019053;28;20220;-81
2021/09/26 05:52:49;;;;;;;19.80;11.40;;;13.70;97.30;;;;;;5019616;28;21936;-80
2021/09/26 05:55:15;;;;;;;15.03;10.13;;;13.70;97.30;;;;;;5019561;28;20744;-81
2021/09/26 05:57:41;;;;;;;17.27;10.43;;;13.70;97.30;;;;;;5018739;28;20647;-80
2021/09/26 06:00:07;;;;;;;21.97;11.30;;;13.80;97.30;;;;;;5019729;28;20217;-80
2021/09/26 06:02:33;;;;;;;16.73;11.20;;;13.80;97.30;;;;;;5021761;28;20172;-81
2021/09/26 06:04:59;;;;;;;15.90;9.70;;;13.90;97.30;;;;;;5018843;28;20507;-82
2021/09/26 06:07:25;;;;;;;17.63;10.87;;;13.90;97.30;;;;;;5019116;28;20424;-82
2021/09/26 06:09:51;;;;;;;19.50;10.67;;;14.00;97.30;;;;;;5019332;28;20412;-81
2021/09/26 06:12:17;;;;;;;14.50;9.37;;;14.00;97.30;;;;;;5021279;28;20172;-81
2021/09/26 06:14:43;;;;;;;17.80;11.30;;;14.00;97.30;;;;;;5018392;28;20606;-81
2021/09/26 06:17:08;;;;;;;16.27;10.10;;;14.10;97.30;;;;;;5008728;28;20423;-80
2021/09/26 06:19:34;;;;;;;23.17;10.50;;;14.10;97.30;;;;;;5016034;28;20428;-79
2021/09/26 06:22:00;;;;;;;18.13;10.60;;;14.10;97.30;;;;;;5000511;28;20257;-80
2021/09/26 06:24:26;;;;;;;16.47;10.30;;;14.20;97.30;;;;;;5006958;28;20264;-79
2021/09/26 06:26:55;;;;;;;16.83;9.87;;;14.20;97.30;;;;;;5012385;28;20643;-79
2021/09/26 06:29:21;;;;;;;18.33;10.00;;;14.30;97.30;;;;;;5017123;28;20929;-80
2021/09/26 06:31:48;;;;;;;18.10;10.50;;;14.30;97.30;;;;;;5018556;28;20519;-79
2021/09/26 06:34:14;;;;;;;21.87;11.13;;;14.40;97.30;;;;;;5015251;28;20228;-81
2021/09/26 06:36:42;;;;;;;15.57;9.93;;;14.40;97.30;;;;;;5014953;28;20508;-79
2021/09/26 06:39:08;;;;;;;13.87;9.73;;;14.40;97.30;;;;;;5009129;28;20417;-79
2021/09/26 06:41:34;;;;;;;17.53;10.80;;;14.40;97.30;;;;;;5016031;28;20468;-82
2021/09/26 06:44:01;;;;;;;20.60;11.37;;;14.50;97.30;;;;;;5000118;28;20449;-83
2021/09/26 06:46:28;;;;;;;17.07;11.10;;;14.50;97.30;;;;;;5010345;28;20182;-82
2021/09/26 06:48:53;;;;;;;19.77;11.00;;;14.60;97.30;;;;;;5017036;28;20474;-82
2021/09/26 06:51:19;;;;;;;21.70;12.50;;;14.60;97.30;;;;;;5013194;28;20440;-81
2021/09/26 06:53:45;;;;;;;18.60;11.60;;;14.60;97.30;;;;;;5016969;28;20627;-82
2021/09/26 06:56:11;;;;;;;17.03;10.10;;;14.70;97.30;;;;;;5011610;28;20178;-82
2021/09/26 06:58:36;;;;;;;22.00;11.27;;;14.70;97.30;;;;;;5018125;28;20177;-81
2021/09/26 07:01:02;;;;;;;17.10;10.70;;;14.70;97.30;;;;;;5017067;28;20225;-81
2021/09/26 07:03:28;;;;;;;19.93;11.27;;;14.80;97.30;;;;;;5008212;28;20208;-81
2021/09/26 07:05:53;;;;;;;18.23;11.00;;;14.80;97.30;;;;;;5015087;28;20177;-81
2021/09/26 07:08:19;;;;;;;16.07;9.70;;;14.80;97.30;;;;;;5016234;28;20249;-81
2021/09/26 07:10:44;;;;;;;18.70;10.63;;;14.90;97.30;;;;;;5017249;28;20637;-81
2021/09/26 07:13:10;;;;;;;16.80;10.13;;;14.90;97.30;;;;;;5017911;28;20215;-80
2021/09/26 07:15:36;;;;;;;18.03;10.30;;;15.00;97.30;;;;;;5006148;28;20185;-80
2021/09/26 07:18:02;;;;;;;15.90;9.80;;;15.00;97.30;;;;;;5013246;28;20216;-82
2021/09/26 07:20:28;;;;;;;17.80;9.80;;;15.10;97.30;;;;;;5033389;28;20424;-81
2021/09/26 07:22:55;;;;;;;18.07;10.60;;;15.10;97.30;;;;;;5011808;28;20455;-82
2021/09/26 07:25:21;;;;;;;14.73;9.33;;;15.20;97.30;;;;;;5010403;28;20189;-80
2021/09/26 07:27:46;;;;;;;16.67;10.20;;;15.30;97.30;;;;;;5017152;28;20921;-80
2021/09/26 07:30:12;;;;;;;14.60;8.57;;;15.30;97.30;;;;;;5011762;28;20208;-81
2021/09/26 07:32:38;;;;;;;17.80;10.07;;;15.30;97.30;;;;;;5009860;28;20702;-81
2021/09/26 07:35:04;;;;;;;20.20;10.07;;;15.40;97.30;;;;;;5013483;28;20459;-81
2021/09/26 07:37:30;;;;;;;21.33;11.07;;;15.40;97.30;;;;;;5015848;28;20268;-80
2021/09/26 07:39:55;;;;;;;24.23;10.73;;;15.50;97.30;;;;;;5036265;28;20478;-81
2021/09/26 07:42:21;;;;;;;16.50;9.90;;;15.50;97.30;;;;;;5004612;28;20203;-81
2021/09/26 07:44:47;;;;;;;17.73;8.80;;;15.60;97.30;;;;;;5009115;28;20201;-81
2021/09/26 07:47:13;;;;;;;18.40;10.07;;;15.60;97.30;;;;;;5010055;28;20460;-81
2021/09/26 07:49:39;;;;;;;15.73;10.10;;;15.70;97.30;;;;;;5017092;28;20215;-81
2021/09/26 07:52:04;;;;;;;16.07;9.90;;;15.70;97.30;;;;;;5016951;28;20280;-79
2021/09/26 07:54:31;;;;;;;13.87;9.10;;;15.80;97.30;;;;;;5015762;28;20464;-81
2021/09/26 07:56:58;;;;;;;15.27;9.13;;;15.90;97.30;;;;;;5016838;28;20181;-80
2021/09/26 07:59:23;;;;;;;15.33;8.27;;;16.00;97.30;;;;;;5009444;28;20420;-80
2021/09/26 08:01:49;;;;;;;16.00;8.90;;;16.00;97.30;;;;;;5014498;28;21012;-81
2021/09/26 08:04:16;;;;;;;15.23;9.10;;;16.10;97.30;;;;;;4999480;28;20201;-81
2021/09/26 08:06:41;;;;;;;15.23;8.80;;;16.10;97.30;;;;;;5006645;28;20181;-80
2021/09/26 08:09:08;;;;;;;14.77;9.07;;;16.20;97.30;;;;;;5009654;28;20432;-81
2021/09/26 08:11:33;;;;;;;15.33;9.07;;;16.30;97.30;;;;;;5010039;28;20181;-80
2021/09/26 08:14:00;;;;;;;16.63;9.40;;;16.50;97.30;;;;;;5013470;28;20474;-81
2021/09/26 08:16:26;;;;;;;12.67;8.30;;;16.70;97.30;;;;;;5012689;28;20267;-82
2021/09/26 08:18:51;;;;;;;13.97;9.00;;;16.90;97.30;;;;;;5015038;28;20847;-82
2021/09/26 08:21:17;;;;;;;18.63;8.83;;;17.00;97.30;;;;;;5016011;28;20177;-81
2021/09/26 08:23:42;;;;;;;14.47;8.47;;;17.20;97.30;;;;;;5014199;28;20204;-81
2021/09/26 08:26:08;;;;;;;12.77;7.63;;;17.30;97.30;;;;;;5006279;28;20178;-82
2021/09/26 08:28:33;;;;;;;12.50;8.70;;;17.40;97.30;;;;;;5017839;28;20188;-83
2021/09/26 08:30:59;;;;;;;10.80;7.07;;;17.60;97.30;;;;;;5016705;28;20234;-83
2021/09/26 08:33:25;;;;;;;12.67;7.93;;;17.70;97.30;;;;;;5009960;28;20697;-85
2021/09/26 08:35:51;;;;;;;14.23;8.27;;;17.90;97.30;;;;;;5015929;28;20177;-80
2021/09/26 08:38:17;;;;;;;10.57;7.57;;;18.00;97.30;;;;;;5017440;28;20407;-85
2021/09/26 08:40:43;;;;;;;12.23;7.10;;;18.20;97.30;;;;;;5016347;28;20420;-83
2021/09/26 08:43:11;;;;;;;12.43;6.90;;;18.30;97.30;;;;;;5019515;28;20254;-85
2021/09/26 08:45:39;;;;;;;19.00;7.53;;;18.40;97.30;;;;;;5007433;28;20211;-82
2021/09/26 08:48:09;;;;;;;10.47;7.07;;;18.50;97.30;;;;;;5012888;28;20442;-84
2021/09/26 08:50:35;;;;;;;12.17;7.30;;;18.70;97.30;;;;;;5023590;28;20922;-81
2021/09/26 08:53:04;;;;;;;9.40;6.57;;;18.80;97.30;;;;;;5020092;28;20525;-80
2021/09/26 08:55:29;;;;;;;11.67;7.03;;;18.90;97.30;;;;;;5014232;28;20428;-78
2021/09/26 08:57:55;;;;;;;11.60;6.33;;;19.10;97.30;;;;;;5010378;28;20454;-77
2021/09/26 09:00:21;;;;;;;12.77;8.30;;;19.30;97.30;;;;;;4994268;28;20232;-80
2021/09/26 09:02:46;;;;;;;10.90;7.33;;;19.50;97.30;;;;;;5011031;28;20197;-77
2021/09/26 09:05:31;;;;;;;12.17;7.33;;;19.60;97.30;;;;;;4994106;28;20182;-78
2021/09/26 09:08:09;;;;;;;11.50;7.53;;;19.80;97.30;;;;;;5009203;28;20196;-80
2021/09/26 09:10:58;;;;;;;10.07;6.73;;;19.90;97.30;;;;;;5013463;28;20420;-78
2021/09/26 09:13:32;;;;;;;8.90;5.73;;;20.00;97.30;;;;;;5012885;28;20466;-77
2021/09/26 09:16:00;;;;;;;14.90;6.27;;;20.10;97.30;;;;;;5011473;28;20408;-78
2021/09/26 09:18:42;;;;;;;12.43;6.50;;;20.20;97.30;;;;;;5010031;28;20423;-77
2021/09/26 09:21:24;;;;;;;7.47;5.40;;;20.20;97.30;;;;;;5013353;28;20420;-79
2021/09/26 09:23:54;;;;;;;9.00;6.17;;;20.30;97.30;;;;;;5009370;28;20452;-79
2021/09/26 09:26:34;;;;;;;10.90;6.00;;;20.40;97.30;;;;;;4994237;28;20413;-77
2021/09/26 09:29:00;;;;;;;9.80;6.13;;;20.60;97.30;;;;;;5011386;28;20435;-78
2021/09/26 09:31:26;;;;;;;12.30;6.20;;;20.70;97.30;;;;;;5013790;28;20438;-78
2021/09/26 09:33:52;;;;;;;12.10;6.07;;;20.70;97.30;;;;;;5012986;28;20546;-77
2021/09/26 09:36:25;;;;;;;23.27;12.93;;;20.80;97.30;;;;;;5013392;28;20756;-79
2021/09/26 09:38:57;;;;;;;10.40;6.50;;;20.90;97.30;;;;;;5012309;28;20587;-78
2021/09/26 09:41:36;;;;;;;7.27;5.17;;;21.00;97.30;;;;;;5011803;28;20400;-78
2021/09/26 09:44:04;;;;;;;9.97;6.57;;;21.20;97.30;;;;;;5011762;28;20514;-77
2021/09/26 09:46:39;;;;;;;8.33;5.47;;;21.30;97.30;;;;;;5013118;28;20427;-78
2021/09/26 09:49:15;;;;;;;10.00;6.03;;;21.40;97.30;;;;;;5012030;28;20428;-78
2021/09/26 09:51:51;;;;;;;8.80;5.80;;;21.50;97.30;;;;;;5028800;28;20447;-78
2021/09/26 09:54:30;;;;;;;13.00;6.20;;;21.60;97.30;;;;;;5012933;28;20499;-79
2021/09/26 09:56:57;;;;;;;8.40;6.13;;;21.70;97.30;;;;;;5018249;28;20408;-81
2021/09/26 09:59:32;;;;;;;7.07;5.20;;;21.80;97.20;;;;;;5036718;28;20416;-80
2021/09/26 10:01:58;;;;;;;8.47;5.13;;;21.90;97.30;;;;;;5017353;28;20432;-81
2021/09/26 10:04:38;;;;;;;8.07;5.27;;;22.00;97.30;;;;;;5017542;28;20468;-80
2021/09/26 10:07:17;;;;;;;6.30;5.10;;;22.10;97.30;;;;;;5016903;28;20638;-80
2021/09/26 10:09:43;;;;;;;11.03;5.43;;;22.30;97.30;;;;;;5015852;28;20951;-80
2021/09/26 10:12:22;;;;;;;7.33;5.80;;;22.40;97.10;;;;;;5015814;28;20423;-80
2021/09/26 10:14:51;;;;;;;9.80;5.60;;;22.50;97.10;;;;;;5014467;28;20487;-80
2021/09/26 10:17:18;;;;;;;8.70;4.80;;;22.60;97.30;;;;;;5018529;28;20941;-80
2021/09/26 10:19:44;;;;;;;8.37;4.90;;;22.70;97.30;;;;;;5019105;28;20424;-80
2021/09/26 10:22:15;;;;;;;7.50;5.13;;;22.80;96.90;;;;;;5018071;28;20424;-80
2021/09/26 10:24:43;;;;;;;9.73;5.93;;;22.90;96.60;;;;;;5017660;28;20251;-80
2021/09/26 10:27:11;;;;;;;10.50;5.70;;;22.90;95.90;;;;;;5018359;28;20959;-81
2021/09/26 10:29:38;;;;;;;8.07;5.20;;;23.00;95.50;;;;;;5017627;28;20416;-80
2021/09/26 10:32:07;;;;;;;7.97;5.10;;;23.20;96.20;;;;;;5010834;28;20420;-81
2021/09/26 10:34:33;;;;;;;8.73;5.40;;;23.30;96.30;;;;;;5011369;28;20475;-80
2021/09/26 10:37:02;;;;;;;7.23;5.40;;;23.40;96.60;;;;;;5008933;28;20408;-80
2021/09/26 10:39:29;;;;;;;7.67;5.40;;;23.40;95.00;;;;;;5018285;28;20420;-80
2021/09/26 10:42:13;;;;;;;8.77;5.87;;;23.40;94.50;;;;;;5018121;28;20416;-81
2021/09/26 10:44:45;;;;;;;8.33;5.53;;;23.50;92.90;;;;;;5018229;28;20463;-81
2021/09/26 10:47:17;;;;;;;12.53;5.20;;;23.60;93.00;;;;;;5018329;28;20424;-81
2021/09/26 10:49:50;;;;;;;6.80;5.23;;;23.70;93.90;;;;;;5017962;28;20871;-81
2021/09/26 10:52:35;;;;;;;6.37;4.90;;;23.80;94.40;;;;;;5030724;28;20424;-81
2021/09/26 10:55:24;;;;;;;9.20;5.40;;;23.90;94.40;;;;;;5015213;28;20469;-81
2021/09/26 10:58:07;;;;;;;7.73;5.30;;;24.00;94.50;;;;;;5014686;28;20420;-81
2021/09/26 11:00:40;;;;;;;9.30;5.40;;;24.10;94.70;;;;;;5013576;28;20465;-80
2021/09/26 11:03:08;;;;;;;9.43;5.77;;;24.10;93.40;;;;;;4997745;28;20460;-79
2021/09/26 11:05:34;;;;;;;9.40;6.00;;;24.20;94.00;;;;;;4997432;28;20431;-81
2021/09/26 11:08:02;;;;;;;7.03;5.50;;;24.20;93.80;;;;;;4997518;28;20417;-81
2021/09/26 11:10:45;;;;;;;6.47;4.93;;;24.40;92.80;;;;;;4996571;28;20420;-81
2021/09/26 11:13:14;;;;;;;11.47;6.13;;;24.50;94.20;;;;;;4995696;28;21053;-80
2021/09/26 11:16:17;;;;;;;8.97;5.77;;;24.60;92.90;;;;;;4996126;28;20451;-80
2021/09/26 11:18:43;;;;;;;9.83;5.30;;;24.70;92.90;;;;;;4996390;28;20417;-80
2021/09/26 11:21:09;;;;;;;9.93;5.93;;;24.80;91.60;;;;;;5012272;28;20413;-81
2021/09/26 11:23:36;;;;;;;10.27;5.33;;;24.90;93.50;;;;;;4995477;28;20209;-81
2021/09/26 11:26:06;;;;;;;7.30;5.70;;;25.00;93.60;;;;;;4996211;28;20244;-82
2021/09/26 11:28:37;;;;;;;8.30;5.30;;;25.10;92.40;;;;;;4995671;28;20482;-82
2021/09/26 11:31:09;;;;;;;8.73;5.67;;;25.20;92.50;;;;;;4996734;28;20495;-81
2021/09/26 11:33:57;;;;;;;11.13;5.53;;;25.30;91.90;;;;;;4996182;28;20506;-82
2021/09/26 11:36:25;;;;;;;8.10;5.20;;;25.30;90.10;;;;;;5013048;28;20421;-83
2021/09/26 11:38:51;;;;;;;11.23;4.77;;;25.40;90.90;;;;;;5013002;28;20413;-83
2021/09/26 11:41:31;;;;;;;13.93;5.40;;;25.50;90.50;;;;;;4995727;28;20492;-82
2021/09/26 11:44:03;;;;;;;10.87;5.33;;;25.50;90.90;;;;;;4995373;28;20678;-81
2021/09/26 11:46:29;;;;;;;8.83;5.20;;;25.60;91.60;;;;;;4994426;28;20664;-82
2021/09/26 11:49:04;;;;;;;10.30;5.13;;;25.70;91.50;;;;;;5004621;28;20439;-82
2021/09/26 11:51:31;;;;;;;6.63;4.70;;;25.70;90.50;;;;;;5016343;28;20410;-81
2021/09/26 11:53:58;;;;;;;8.70;5.80;;;25.80;90.70;;;;;;5014836;28;20677;-82
2021/09/26 11:56:27;;;;;;;7.10;5.10;;;25.90;91.70;;;;;;5016680;28;20926;-81
2021/09/26 11:58:55;;;;;;;7.80;5.40;;;26.00;90.60;;;;;;5016930;28;20428;-80
2021/09/26 12:01:47;;;;;;;6.90;4.93;;;26.10;90.40;;;;;;5015543;28;20966;-80
2021/09/26 12:04:14;;;;;;;7.23;4.87;;;26.10;90.30;;;;;;5014022;28;20671;-80
2021/09/26 12:06:49;;;;;;;11.07;5.70;;;26.10;90.70;;;;;;5014471;28;20431;-80
2021/09/26 12:09:33;;;;;;;9.80;5.50;;;25.90;89.70;;;;;;5015756;28;20457;-81
2021/09/26 12:12:00;;;;;;;7.50;4.77;;;25.80;89.70;;;;;;5014613;28;20791;-81
2021/09/26 12:14:29;;;;;;;7.70;4.90;;;25.70;89.80;;;;;;5014960;28;20471;-81
2021/09/26 12:16:56;;;;;;;7.77;5.07;;;25.60;90.50;;;;;;5015017;28;20624;-81
2021/09/26 12:19:22;;;;;;;6.30;4.80;;;25.50;91.30;;;;;;5014077;28;20479;-79
2021/09/26 12:22:06;;;;;;;8.70;4.97;;;25.60;89.60;;;;;;5013739;28;20417;-81
2021/09/26 12:24:40;;;;;;;7.40;4.90;;;25.70;91.20;;;;;;5008875;28;20196;-82
2021/09/26 12:27:20;;;;;;;6.70;4.60;;;25.90;90.80;;;;;;5013894;28;20415;-81
2021/09/26 12:30:01;;;;;;;5.93;4.37;;;26.20;91.20;;;;;;5013469;28;20467;-82
2021/09/26 12:32:31;;;;;;;6.23;5.13;;;26.30;90.70;;;;;;5012334;28;20428;-82
2021/09/26 12:34:59;;;;;;;7.50;4.40;;;26.50;89.80;;;;;;5000456;28;20471;-81
2021/09/26 12:37:29;;;;;;;7.37;4.57;;;26.70;89.50;;;;;;4993464;28;20437;-81
2021/09/26 12:39:59;;;;;;;11.80;4.50;;;26.80;89.60;;;;;;4991934;28;20421;-82
2021/09/26 12:42:28;;;;;;;7.53;4.80;;;26.90;88.60;;;;;;4992143;28;20456;-82